Time;durP1;ratioP1;P1;durP2;ratioP2;P2;SDS_P1;SDS_P2;PMS_P1;PMS_P2;Temp;Humidity;BMP_temperature;BMP_pressure;BME280_temperature;BME280_humidity;BME280_pressure;Samples;Min_cycle;Max_cycle;Signal;HPM_P1;HPM_P2
2023/01/28 00:00:05;;;;;;;15.27;7.80;;;3.90;99.90;;;;;;5054130;28;20203;-57
2023/01/28 00:02:31;;;;;;;18.33;7.40;;;5.10;99.90;;;;;;5053900;28;20193;-56
2023/01/28 00:04:57;;;;;;;18.93;7.93;;;4.00;99.90;;;;;;5053680;28;20577;-56
2023/01/28 00:07:23;;;;;;;19.10;7.30;;;4.00;99.90;;;;;;5053654;28;20173;-57
2023/01/28 00:09:49;;;;;;;17.70;7.10;;;4.20;99.90;;;;;;5053887;28;20169;-56
2023/01/28 00:12:15;;;;;;;12.30;6.67;;;4.10;99.90;;;;;;5053763;28;20184;-56
2023/01/28 00:14:40;;;;;;;17.93;7.50;;;3.90;99.90;;;;;;5053594;28;20196;-56
2023/01/28 00:17:06;;;;;;;17.90;8.13;;;4.10;99.90;;;;;;5053438;28;20170;-56
2023/01/28 00:19:32;;;;;;;16.60;7.50;;;4.20;99.90;;;;;;5053513;28;20177;-56
2023/01/28 00:21:57;;;;;;;18.20;7.53;;;4.30;99.90;;;;;;5053389;28;20178;-57
2023/01/28 00:24:23;;;;;;;18.03;8.13;;;4.30;99.90;;;;;;5053345;28;20632;-56
2023/01/28 00:26:48;;;;;;;18.60;7.97;;;4.30;99.90;;;;;;5053382;28;20172;-57
2023/01/28 00:29:14;;;;;;;16.80;7.33;;;4.30;99.90;;;;;;5053398;28;20260;-57
2023/01/28 00:31:40;;;;;;;22.13;8.13;;;4.40;99.90;;;;;;5053345;28;20663;-58
2023/01/28 00:34:05;;;;;;;22.33;7.83;;;4.30;99.90;;;;;;5053022;28;20227;-57
2023/01/28 00:36:32;;;;;;;18.23;8.10;;;4.40;99.90;;;;;;5053101;28;20216;-57
2023/01/28 00:38:58;;;;;;;17.10;8.03;;;4.40;99.90;;;;;;5053314;28;20185;-57
2023/01/28 00:41:27;;;;;;;13.53;7.50;;;4.40;99.90;;;;;;5052997;28;20204;-57
2023/01/28 00:43:53;;;;;;;14.00;7.93;;;4.90;99.90;;;;;;5053113;28;20166;-56
2023/01/28 00:46:20;;;;;;;19.73;8.13;;;4.50;99.90;;;;;;5052970;28;20169;-57
2023/01/28 00:48:46;;;;;;;19.13;7.93;;;4.30;99.90;;;;;;5053151;28;20161;-57
2023/01/28 00:51:14;;;;;;;20.83;9.10;;;4.10;99.90;;;;;;5052857;28;20657;-57
2023/01/28 00:53:40;;;;;;;20.00;7.77;;;4.50;99.90;;;;;;5052900;28;20166;-57
2023/01/28 00:56:07;;;;;;;15.50;8.40;;;4.50;99.90;;;;;;5052817;28;20205;-57
2023/01/28 00:58:33;;;;;;;15.63;7.30;;;4.50;99.90;;;;;;5052711;28;20161;-57
2023/01/28 01:01:13;;;;;;;18.20;8.37;;;4.30;99.90;;;;;;5052396;28;20666;-57
2023/01/28 01:03:38;;;;;;;23.20;8.40;;;4.40;99.90;;;;;;5052534;28;20199;-57
2023/01/28 01:06:05;;;;;;;23.43;7.63;;;4.40;99.90;;;;;;5052684;28;20630;-57
2023/01/28 01:08:33;;;;;;;19.40;7.50;;;4.50;99.90;;;;;;5052659;28;20169;-57
2023/01/28 01:11:03;;;;;;;17.80;7.93;;;4.50;99.90;;;;;;5034540;28;20169;-57
2023/01/28 01:13:30;;;;;;;17.27;8.80;;;4.50;99.90;;;;;;5052607;28;20195;-57
2023/01/28 01:16:08;;;;;;;19.17;8.57;;;4.50;99.90;;;;;;5052365;28;20228;-57
2023/01/28 01:18:35;;;;;;;19.87;8.30;;;4.40;99.90;;;;;;5052523;28;20179;-57
2023/01/28 01:21:01;;;;;;;15.57;8.23;;;4.50;99.90;;;;;;5034232;28;20564;-58
2023/01/28 01:23:29;;;;;;;20.87;8.80;;;4.00;99.90;;;;;;5052040;28;20239;-57
2023/01/28 01:25:54;;;;;;;18.27;8.10;;;4.50;99.90;;;;;;5052174;28;20170;-57
2023/01/28 01:28:21;;;;;;;18.63;8.03;;;4.30;99.90;;;;;;5052147;28;20185;-57
2023/01/28 01:30:48;;;;;;;21.17;8.17;;;4.40;99.90;;;;;;5034138;28;20177;-58
2023/01/28 01:33:15;;;;;;;20.47;8.13;;;4.40;99.90;;;;;;5051980;28;20715;-57
2023/01/28 01:35:41;;;;;;;15.10;7.10;;;;;;;;;;5050640;28;20591;-57
2023/01/28 01:38:07;;;;;;;15.53;7.37;;;4.40;99.90;;;;;;5051850;28;20183;-57
2023/01/28 01:40:33;;;;;;;13.90;7.37;;;4.30;99.90;;;;;;5051570;28;20188;-58
2023/01/28 01:42:59;;;;;;;16.10;7.43;;;4.30;99.90;;;;;;5051385;28;20177;-58
2023/01/28 01:45:27;;;;;;;15.07;7.47;;;4.20;99.90;;;;;;5051453;28;20173;-57
2023/01/28 01:48:04;;;;;;;16.43;7.57;;;4.10;99.90;;;;;;5021355;28;20185;-58
2023/01/28 01:50:32;;;;;;;16.03;7.60;;;4.20;99.90;;;;;;5051666;28;20173;-57
2023/01/28 01:53:10;;;;;;;15.70;7.80;;;4.00;99.90;;;;;;5051778;28;20181;-57
2023/01/28 01:55:38;;;;;;;13.33;7.60;;;4.10;99.90;;;;;;5051524;28;20217;-57
2023/01/28 01:58:10;;;;;;;20.10;9.27;;;4.10;99.90;;;;;;5051301;28;20254;-58
2023/01/28 02:00:38;;;;;;;23.20;8.57;;;4.10;99.90;;;;;;5051857;28;20189;-57
2023/01/28 02:03:03;;;;;;;18.63;9.17;;;4.20;99.90;;;;;;5052060;28;20173;-57
2023/01/28 02:05:29;;;;;;;19.60;9.63;;;4.10;99.90;;;;;;5033972;28;20177;-57
2023/01/28 02:10:42;;;;;;;19.93;9.40;;;4.20;99.90;;;;;;5051447;28;20184;-57
2023/01/28 02:13:08;;;;;;;16.47;9.77;;;4.20;99.90;;;;;;5051415;28;20173;-57
2023/01/28 02:15:34;;;;;;;17.90;8.83;;;4.30;99.90;;;;;;5051399;28;20308;-57
2023/01/28 02:18:00;;;;;;;16.37;9.20;;;4.30;99.90;;;;;;5033321;28;20654;-57
2023/01/28 02:20:53;;;;;;;26.53;9.40;;;4.30;99.90;;;;;;5050906;28;20185;-57
2023/01/28 02:23:43;;;;;;;16.07;8.30;;;4.30;99.90;;;;;;5051060;28;20267;-57
2023/01/28 02:26:37;;;;;;;17.90;9.03;;;4.30;99.90;;;;;;5050899;28;20279;-58
2023/01/28 02:29:14;;;;;;;18.20;8.93;;;4.40;99.90;;;;;;5050289;28;20192;-58
2023/01/28 02:31:52;;;;;;;16.03;8.60;;;4.40;99.90;;;;;;5050745;28;20263;-57
2023/01/28 02:34:30;;;;;;;18.73;8.83;;;4.50;99.90;;;;;;5051316;28;20238;-57
2023/01/28 02:37:20;;;;;;;13.37;8.30;;;4.40;99.90;;;;;;5051257;28;20706;-57
2023/01/28 02:40:00;;;;;;;15.40;7.93;;;4.90;99.90;;;;;;5050115;28;20666;-57
2023/01/28 02:42:31;;;;;;;14.97;8.83;;;4.50;99.90;;;;;;5039515;28;20177;-58
2023/01/28 02:44:57;;;;;;;18.70;9.07;;;5.50;99.90;;;;;;5050499;28;20173;-57
2023/01/28 02:50:16;;;;;;;19.63;8.50;;;4.30;99.90;;;;;;5050583;28;20250;-55
2023/01/28 02:56:10;;;;;;;23.10;8.97;;;4.60;99.90;;;;;;5050687;28;20286;-58
2023/01/28 02:58:39;;;;;;;18.23;8.73;;;4.40;99.90;;;;;;5050690;28;20188;-58
2023/01/28 03:01:25;;;;;;;18.33;8.87;;;4.40;99.90;;;;;;5050616;28;20315;-58
2023/01/28 03:04:12;;;;;;;16.07;8.23;;;4.40;99.90;;;;;;5050574;28;20169;-58
2023/01/28 03:06:47;;;;;;;17.77;8.57;;;4.50;99.90;;;;;;5050309;28;20251;-58
2023/01/28 03:09:24;;;;;;;20.20;7.90;;;4.50;99.90;;;;;;5049691;28;20187;-58
2023/01/28 03:38:47;;;;;;;18.97;8.37;;;4.40;99.90;;;;;;5046995;28;20216;-58
2023/01/28 03:41:20;;;;;;;14.50;8.13;;;4.40;99.90;;;;;;5049589;28;20386;-58
2023/01/28 03:43:46;;;;;;;16.93;8.20;;;4.30;99.90;;;;;;5050079;28;20173;-58
2023/01/28 03:46:11;;;;;;;17.93;7.97;;;4.30;99.90;;;;;;5049710;28;20246;-58
2023/01/28 03:48:37;;;;;;;20.17;8.07;;;4.30;99.90;;;;;;5049592;28;20209;-58
2023/01/28 03:51:03;;;;;;;14.97;8.53;;;4.30;99.90;;;;;;5047114;28;20227;-58
2023/01/28 03:53:28;;;;;;;15.60;8.27;;;4.30;99.90;;;;;;5049395;28;20223;-58
2023/01/28 03:55:57;;;;;;;14.27;7.77;;;4.20;99.90;;;;;;5049653;28;20209;-58
2023/01/28 03:58:51;;;;;;;17.17;8.53;;;4.30;99.90;;;;;;5049499;28;20226;-58
2023/01/28 04:01:13;;;;;;;20.37;9.63;;;4.30;99.90;;;;;;5049970;28;20644;-58
2023/01/28 04:03:38;;;;;;;15.07;8.97;;;4.10;99.90;;;;;;5050067;28;20176;-58
2023/01/28 04:06:06;;;;;;;20.27;8.60;;;4.30;99.90;;;;;;5050149;28;20239;-58
2023/01/28 04:08:32;;;;;;;17.93;8.63;;;4.30;99.90;;;;;;5050016;28;20169;-58
2023/01/28 04:10:59;;;;;;;19.27;9.80;;;4.30;99.90;;;;;;5049969;28;20226;-58
2023/01/28 04:13:24;;;;;;;16.10;8.40;;;4.20;99.90;;;;;;5049958;28;20169;-58
2023/01/28 04:15:51;;;;;;;17.27;9.07;;;4.30;99.90;;;;;;5049997;28;20678;-58
2023/01/28 04:18:16;;;;;;;21.93;8.50;;;4.00;99.90;;;;;;5049836;28;20169;-58
2023/01/28 04:20:42;;;;;;;20.40;9.03;;;4.30;99.90;;;;;;5051909;28;20177;-58
2023/01/28 04:23:07;;;;;;;23.13;8.80;;;4.20;99.90;;;;;;5053314;28;20191;-58
2023/01/28 04:25:33;;;;;;;16.00;8.17;;;4.40;99.90;;;;;;5053216;28;20567;-58
2023/01/28 04:27:59;;;;;;;16.80;8.53;;;4.30;99.90;;;;;;5053381;28;20188;-58
2023/01/28 04:30:25;;;;;;;16.83;9.10;;;4.20;99.90;;;;;;5052973;28;20177;-58
2023/01/28 04:32:51;;;;;;;17.10;8.93;;;4.30;99.90;;;;;;5053035;28;20235;-58
2023/01/28 04:35:17;;;;;;;16.43;8.43;;;4.20;99.90;;;;;;5053306;28;20562;-55
2023/01/28 04:37:43;;;;;;;19.43;9.20;;;4.20;99.90;;;;;;5052846;28;20200;-58
2023/01/28 04:40:11;;;;;;;24.10;9.47;;;4.10;99.90;;;;;;5053274;28;20636;-58
2023/01/28 04:42:37;;;;;;;17.13;9.07;;;4.10;99.90;;;;;;5052968;28;20607;-58
2023/01/28 04:45:04;;;;;;;19.10;9.30;;;4.10;99.90;;;;;;5052748;28;20553;-58
2023/01/28 04:47:29;;;;;;;19.30;8.87;;;4.00;99.90;;;;;;5052763;28;20185;-58
2023/01/28 04:49:55;;;;;;;22.63;9.80;;;4.00;99.90;;;;;;5052822;28;20173;-58
2023/01/28 04:52:21;;;;;;;15.10;8.53;;;4.30;99.90;;;;;;5050753;28;20185;-58
2023/01/28 04:54:47;;;;;;;17.70;9.00;;;;;;;;;;5052507;28;20683;-58
2023/01/28 04:57:12;;;;;;;17.00;8.83;;;4.40;99.90;;;;;;5052927;28;20185;-57
2023/01/28 04:59:38;;;;;;;19.37;8.90;;;4.10;99.90;;;;;;5052875;28;20599;-58
2023/01/28 05:02:03;;;;;;;22.63;8.13;;;4.10;99.90;;;;;;5034628;28;20187;-58
2023/01/28 05:04:29;;;;;;;15.93;8.40;;;3.20;99.90;;;;;;5032981;28;20166;-58
2023/01/28 05:06:54;;;;;;;17.03;9.20;;;4.30;99.90;;;;;;5041601;28;20169;-58
2023/01/28 05:09:20;;;;;;;17.10;8.90;;;3.90;99.90;;;;;;5052755;28;20235;-58
2023/01/28 05:11:46;;;;;;;14.40;8.40;;;4.20;99.90;;;;;;5052271;28;20197;-58
2023/01/28 05:14:11;;;;;;;17.37;9.70;;;4.10;99.90;;;;;;5052524;28;20191;-57
2023/01/28 05:16:37;;;;;;;18.87;8.63;;;3.90;99.90;;;;;;5052297;28;20297;-58
2023/01/28 05:19:03;;;;;;;15.57;8.63;;;4.20;99.90;;;;;;5052329;28;20173;-57
2023/01/28 05:21:28;;;;;;;13.57;7.77;;;4.20;99.90;;;;;;5052215;28;20204;-58
2023/01/28 05:23:54;;;;;;;17.93;8.30;;;4.30;99.90;;;;;;5052211;28;20183;-57
2023/01/28 05:26:19;;;;;;;16.83;8.67;;;4.10;99.90;;;;;;5051832;28;20177;-57
2023/01/28 05:28:46;;;;;;;16.73;8.60;;;4.10;99.90;;;;;;5051964;28;20193;-58
2023/01/28 05:31:12;;;;;;;16.90;9.20;;;3.90;99.90;;;;;;5051278;28;20709;-58
2023/01/28 05:33:38;;;;;;;15.87;9.27;;;4.10;99.90;;;;;;5051884;28;20259;-58
2023/01/28 05:36:04;;;;;;;18.53;9.77;;;4.00;99.90;;;;;;5051766;28;20208;-58
2023/01/28 05:38:29;;;;;;;20.77;10.27;;;4.10;99.90;;;;;;5051999;28;20235;-58
2023/01/28 05:40:55;;;;;;;21.43;9.73;;;4.00;99.90;;;;;;5051966;28;20180;-58
2023/01/28 05:43:21;;;;;;;20.30;9.63;;;4.00;99.90;;;;;;5051964;28;20173;-58
2023/01/28 05:45:47;;;;;;;30.47;10.03;;;4.00;99.90;;;;;;5051372;28;20675;-58
2023/01/28 05:48:13;;;;;;;16.60;10.03;;;4.00;99.90;;;;;;5051688;28;20180;-58
2023/01/28 05:50:39;;;;;;;17.60;9.80;;;;;;;;;;5051099;28;20181;-59
2023/01/28 05:53:05;;;;;;;19.53;9.90;;;4.10;99.90;;;;;;5051702;28;20298;-58
2023/01/28 05:55:31;;;;;;;18.00;9.27;;;4.00;99.90;;;;;;5050820;28;20278;-58
2023/01/28 05:57:57;;;;;;;20.67;10.10;;;4.00;99.90;;;;;;5048657;28;20660;-58
2023/01/28 06:00:22;;;;;;;17.20;9.43;;;4.10;99.90;;;;;;5033255;28;20185;-58
2023/01/28 06:02:50;;;;;;;18.43;9.90;;;4.20;99.90;;;;;;5033462;28;20259;-58
2023/01/28 06:05:16;;;;;;;19.50;9.00;;;4.90;99.90;;;;;;5051271;28;20181;-58
2023/01/28 06:07:45;;;;;;;23.17;9.27;;;4.10;99.90;;;;;;5051914;28;20189;-58
2023/01/28 06:10:11;;;;;;;17.77;8.70;;;4.10;99.90;;;;;;5051532;28;20165;-58
2023/01/28 06:12:37;;;;;;;20.03;9.27;;;4.10;99.90;;;;;;5051011;28;20212;-58
2023/01/28 06:15:03;;;;;;;21.13;10.40;;;4.10;99.90;;;;;;5050808;28;20203;-58
2023/01/28 06:17:29;;;;;;;16.20;9.70;;;4.10;99.90;;;;;;5051489;28;20284;-58
2023/01/28 06:19:54;;;;;;;17.57;9.07;;;4.10;99.90;;;;;;5051200;28;20177;-58
2023/01/28 06:22:20;;;;;;;16.83;9.07;;;4.10;99.90;;;;;;5050823;28;20174;-58
2023/01/28 06:24:46;;;;;;;20.23;10.03;;;4.10;99.90;;;;;;5051084;28;20173;-58
2023/01/28 06:27:11;;;;;;;18.43;10.57;;;4.00;99.90;;;;;;5051063;28;20276;-58
2023/01/28 06:29:37;;;;;;;18.50;8.67;;;4.10;99.90;;;;;;5051081;28;20553;-58
2023/01/28 06:32:03;;;;;;;18.27;9.80;;;4.10;99.90;;;;;;5050560;28;20634;-58
2023/01/28 06:34:29;;;;;;;19.00;8.87;;;4.10;99.90;;;;;;5050726;28;20205;-58
2023/01/28 06:36:55;;;;;;;23.37;9.40;;;4.10;99.90;;;;;;5049300;28;20247;-58
2023/01/28 06:39:21;;;;;;;18.50;9.83;;;;;;;;;;5050525;28;20577;-58
2023/01/28 06:41:48;;;;;;;17.40;9.50;;;4.10;99.90;;;;;;5050999;28;20185;-58
2023/01/28 06:44:14;;;;;;;18.23;8.73;;;4.10;99.90;;;;;;5050344;28;20256;-58
2023/01/28 06:46:40;;;;;;;18.40;9.60;;;4.10;99.90;;;;;;5050802;28;20185;-58
2023/01/28 06:49:05;;;;;;;16.73;8.63;;;4.80;99.90;;;;;;5050699;28;20216;-58
2023/01/28 06:51:31;;;;;;;14.10;9.10;;;4.10;99.90;;;;;;5050285;28;20286;-59
2023/01/28 06:53:57;;;;;;;16.77;7.90;;;4.20;99.90;;;;;;5050356;28;20188;-56
2023/01/28 06:56:22;;;;;;;12.70;7.87;;;4.20;99.90;;;;;;5050661;28;20250;-59
2023/01/28 06:58:48;;;;;;;15.10;8.33;;;4.10;99.90;;;;;;5050469;28;20177;-59
2023/01/28 07:01:14;;;;;;;12.63;7.20;;;6.70;99.90;;;;;;5050479;28;20224;-59
2023/01/28 07:03:39;;;;;;;13.10;7.43;;;4.20;99.90;;;;;;5050258;28;20169;-59
2023/01/28 07:06:05;;;;;;;12.60;7.27;;;4.20;99.90;;;;;;5050059;28;20226;-59
2023/01/28 07:08:31;;;;;;;12.43;6.70;;;4.20;99.90;;;;;;5050560;28;20242;-59
2023/01/28 07:10:57;;;;;;;12.27;6.70;;;4.30;99.90;;;;;;5050401;28;20173;-59
2023/01/28 07:13:23;;;;;;;12.00;6.00;;;3.80;99.90;;;;;;5050336;28;20173;-59
2023/01/28 07:15:49;;;;;;;13.17;6.17;;;4.30;99.90;;;;;;5050184;28;20288;-59
2023/01/28 07:18:15;;;;;;;9.67;5.50;;;4.30;99.90;;;;;;5049828;28;20185;-59
2023/01/28 07:20:41;;;;;;;10.60;5.87;;;4.40;99.90;;;;;;5050528;28;20212;-60
2023/01/28 07:23:06;;;;;;;14.23;6.20;;;4.40;99.90;;;;;;5050063;28;20208;-59
2023/01/28 07:25:32;;;;;;;12.13;5.90;;;4.40;99.90;;;;;;5050521;28;20532;-59
2023/01/28 07:27:58;;;;;;;13.57;5.90;;;4.40;99.90;;;;;;5049916;28;20177;-59
2023/01/28 07:30:23;;;;;;;11.57;5.60;;;4.60;99.90;;;;;;5050089;28;20642;-59
2023/01/28 07:32:57;;;;;;;11.37;5.13;;;4.40;99.90;;;;;;5049873;28;20277;-59
2023/01/28 07:35:23;;;;;;;11.83;6.17;;;4.30;99.90;;;;;;5049883;28;20208;-59
2023/01/28 07:37:57;;;;;;;11.03;5.80;;;4.30;99.90;;;;;;5049854;28;20500;-59
2023/01/28 07:40:23;;;;;;;10.20;5.73;;;4.30;99.90;;;;;;5050446;28;20177;-57
2023/01/28 07:42:49;;;;;;;10.53;5.30;;;4.30;99.90;;;;;;5049878;28;20185;-59
2023/01/28 07:45:15;;;;;;;11.07;6.70;;;4.30;99.90;;;;;;5050369;28;20676;-57
2023/01/28 07:47:41;;;;;;;14.33;6.37;;;4.30;99.90;;;;;;5050251;28;20177;-57
2023/01/28 07:50:08;;;;;;;13.40;7.00;;;4.20;99.90;;;;;;5050219;28;20624;-58
2023/01/28 07:52:40;;;;;;;13.47;6.73;;;4.30;99.90;;;;;;5049556;28;20244;-58
2023/01/28 07:55:06;;;;;;;13.33;6.77;;;4.20;99.90;;;;;;5051019;28;20182;-58
2023/01/28 07:57:31;;;;;;;17.37;7.47;;;4.30;99.90;;;;;;5053668;28;20635;-59
2023/01/28 07:59:57;;;;;;;18.70;8.27;;;5.80;99.90;;;;;;5053358;28;20687;-58
2023/01/28 08:02:23;;;;;;;15.50;7.53;;;4.00;99.90;;;;;;5053176;28;20268;-59
2023/01/28 08:04:48;;;;;;;15.27;7.73;;;4.10;99.90;;;;;;5053216;28;20181;-58
2023/01/28 08:07:14;;;;;;;13.07;7.53;;;4.30;99.90;;;;;;5053228;28;20266;-58
2023/01/28 08:09:40;;;;;;;10.70;6.87;;;4.20;99.90;;;;;;5035400;28;20238;-58
2023/01/28 08:12:05;;;;;;;13.67;7.50;;;4.10;99.90;;;;;;5053507;28;20284;-58
2023/01/28 08:14:31;;;;;;;14.33;7.10;;;4.00;99.90;;;;;;5053218;28;20195;-59
2023/01/28 08:16:57;;;;;;;13.37;7.40;;;4.10;99.90;;;;;;5052884;28;20223;-58
2023/01/28 08:19:22;;;;;;;14.17;7.93;;;4.10;99.90;;;;;;5053286;28;20606;-58
2023/01/28 08:21:48;;;;;;;12.67;7.20;;;4.30;99.90;;;;;;5053197;28;20177;-58
2023/01/28 08:24:13;;;;;;;17.30;7.70;;;4.20;99.90;;;;;;5050991;28;20260;-58
2023/01/28 08:26:39;;;;;;;13.97;7.63;;;4.20;99.90;;;;;;5052713;28;20181;-58
2023/01/28 08:29:05;;;;;;;15.90;7.90;;;4.20;99.90;;;;;;5053279;28;20550;-58
2023/01/28 08:31:30;;;;;;;14.93;7.87;;;4.10;99.90;;;;;;5034641;28;20177;-58
2023/01/28 08:33:56;;;;;;;12.90;7.90;;;4.80;99.90;;;;;;5052723;28;20252;-58
2023/01/28 08:36:22;;;;;;;19.73;7.77;;;7.10;99.90;;;;;;5052933;28;20237;-57
2023/01/28 08:38:53;;;;;;;19.20;8.73;;;4.20;99.90;;;;;;5052018;28;20174;-56
2023/01/28 08:41:21;;;;;;;18.03;7.80;;;4.30;99.90;;;;;;5042242;28;20183;-56
2023/01/28 08:43:47;;;;;;;14.43;7.57;;;4.20;99.90;;;;;;5052909;28;20264;-57
2023/01/28 08:46:13;;;;;;;17.47;7.57;;;4.30;99.90;;;;;;5053101;28;20296;-57
2023/01/28 08:48:39;;;;;;;14.73;7.90;;;4.30;99.90;;;;;;5053155;28;20180;-57
2023/01/28 08:51:05;;;;;;;17.27;8.67;;;4.30;99.90;;;;;;5052870;28;20181;-57
2023/01/28 08:53:30;;;;;;;14.67;7.70;;;4.30;99.90;;;;;;5053127;28;20185;-56
2023/01/28 08:55:56;;;;;;;16.87;9.77;;;4.30;99.90;;;;;;5053014;28;20215;-57
2023/01/28 08:58:22;;;;;;;14.37;8.60;;;4.50;99.90;;;;;;5052905;28;20176;-57
2023/01/28 09:00:48;;;;;;;17.53;8.77;;;4.50;99.90;;;;;;5052481;28;20571;-56
2023/01/28 09:03:14;;;;;;;13.87;7.40;;;4.60;99.90;;;;;;5051962;28;20177;-57
2023/01/28 09:05:40;;;;;;;14.77;8.13;;;4.60;99.90;;;;;;5051733;28;20181;-58
2023/01/28 09:08:08;;;;;;;14.90;7.97;;;4.50;99.90;;;;;;5051974;28;20185;-57
2023/01/28 09:10:34;;;;;;;14.67;7.63;;;4.50;99.90;;;;;;5053134;28;20219;-58
2023/01/28 09:13:04;;;;;;;11.07;6.83;;;4.60;99.90;;;;;;5052622;28;20165;-57
2023/01/28 09:15:30;;;;;;;14.90;7.80;;;4.70;99.90;;;;;;5052211;28;20212;-57
2023/01/28 09:17:58;;;;;;;16.33;7.57;;;4.70;99.90;;;;;;5052633;28;20446;-58
2023/01/28 09:20:24;;;;;;;15.40;8.20;;;4.70;99.90;;;;;;5052603;28;20663;-56
2023/01/28 09:22:50;;;;;;;18.67;8.93;;;;;;;;;;5052517;28;20242;-56
2023/01/28 09:25:15;;;;;;;18.50;8.67;;;4.80;99.90;;;;;;5052157;28;20201;-56
2023/01/28 09:27:41;;;;;;;15.03;8.73;;;4.80;99.90;;;;;;5052632;28;20262;-56
2023/01/28 09:30:09;;;;;;;15.77;8.80;;;4.80;99.90;;;;;;5051864;28;20177;-56
2023/01/28 09:32:34;;;;;;;19.73;7.60;;;4.90;99.90;;;;;;5039565;28;20221;-56
2023/01/28 09:35:00;;;;;;;18.10;7.77;;;5.00;99.90;;;;;;5050178;28;20234;-57
2023/01/28 09:37:26;;;;;;;13.17;7.67;;;4.90;99.90;;;;;;5052036;28;20679;-56
2023/01/28 09:39:51;;;;;;;15.17;7.63;;;5.10;99.90;;;;;;5044717;28;20189;-56
2023/01/28 09:42:45;;;;;;;22.33;8.40;;;5.20;99.90;;;;;;5051906;28;20173;-56
2023/01/28 09:45:16;;;;;;;19.00;8.27;;;5.20;99.90;;;;;;5052092;28;20180;-56
2023/01/28 09:47:56;;;;;;;13.53;6.80;;;5.30;99.90;;;;;;5052251;28;20314;-57
2023/01/28 09:50:25;;;;;;;24.03;7.60;;;5.40;99.90;;;;;;5051140;28;20632;-57
2023/01/28 09:52:54;;;;;;;15.93;8.23;;;5.40;99.90;;;;;;5041270;28;20178;-57
2023/01/28 09:55:34;;;;;;;18.77;7.50;;;5.50;99.90;;;;;;5051891;28;20205;-57
2023/01/28 09:57:59;;;;;;;15.27;7.20;;;5.50;99.90;;;;;;5052002;28;20188;-57
2023/01/28 10:00:28;;;;;;;15.17;7.23;;;5.60;99.90;;;;;;5051704;28;20589;-57
2023/01/28 10:03:19;;;;;;;20.90;8.47;;;5.60;99.90;;;;;;5051640;28;20165;-57
2023/01/28 10:06:13;;;;;;;17.73;8.07;;;5.70;99.90;;;;;;5051456;28;20205;-57
2023/01/28 10:09:03;;;;;;;15.03;8.07;;;5.60;99.90;;;;;;5031753;28;20177;-57
2023/01/28 10:11:31;;;;;;;10.47;6.00;;;5.80;99.90;;;;;;5031569;28;20185;-57
2023/01/28 10:14:23;;;;;;;15.27;6.33;;;5.70;99.90;;;;;;5031559;28;20236;-57
2023/01/28 10:16:59;;;;;;;8.73;5.00;;;5.70;99.90;;;;;;5041625;28;20270;-57
2023/01/28 10:19:34;;;;;;;12.13;5.50;;;5.90;99.90;;;;;;5050855;28;20239;-57
2023/01/28 10:22:15;;;;;;;11.73;4.77;;;5.90;99.90;;;;;;5051300;28;20177;-57
2023/01/28 10:24:48;;;;;;;8.50;4.80;;;6.00;99.90;;;;;;5051555;28;20204;-57
2023/01/28 10:27:22;;;;;;;10.67;5.10;;;6.20;99.90;;;;;;5050813;28;20250;-57
2023/01/28 10:29:49;;;;;;;6.70;4.17;;;6.10;99.90;;;;;;5050868;28;20281;-57
2023/01/28 10:32:28;;;;;;;8.83;4.40;;;6.10;99.90;;;;;;5033042;28;20684;-57
2023/01/28 10:34:55;;;;;;;11.73;4.17;;;6.20;99.90;;;;;;5050969;28;20181;-57
2023/01/28 10:37:21;;;;;;;10.53;4.63;;;6.20;99.90;;;;;;5050980;28;20205;-57
2023/01/28 10:39:47;;;;;;;11.83;3.97;;;5.10;99.90;;;;;;5050730;28;20226;-57
2023/01/28 10:42:36;;;;;;;10.37;4.13;;;6.20;99.90;;;;;;5050291;28;20185;-57
2023/01/28 10:45:20;;;;;;;11.83;3.87;;;6.30;99.90;;;;;;5045736;28;20173;-57
2023/01/28 10:48:00;;;;;;;10.47;3.93;;;6.30;99.90;;;;;;5049877;28;20181;-57
2023/01/28 10:50:29;;;;;;;6.57;3.97;;;6.30;99.90;;;;;;5050452;28;20204;-57
2023/01/28 10:53:03;;;;;;;13.93;4.10;;;6.50;99.90;;;;;;5050082;28;20184;-57
2023/01/28 10:55:54;;;;;;;8.13;3.70;;;6.50;99.90;;;;;;5050447;28;20208;-57
2023/01/28 10:58:23;;;;;;;7.43;3.93;;;6.40;99.90;;;;;;5047685;28;20177;-57
2023/01/28 11:01:01;;;;;;;8.93;4.00;;;6.50;99.90;;;;;;5050181;28;20168;-57
2023/01/28 11:03:29;;;;;;;6.50;3.33;;;6.50;99.90;;;;;;5047337;28;20227;-57
2023/01/28 11:05:57;;;;;;;8.80;3.40;;;6.50;99.90;;;;;;5050094;28;20204;-57
2023/01/28 11:08:25;;;;;;;8.70;3.93;;;6.60;99.90;;;;;;5042102;28;20647;-57
2023/01/28 11:10:52;;;;;;;6.67;4.00;;;8.10;99.90;;;;;;5049966;28;20212;-57
2023/01/28 11:13:20;;;;;;;10.23;3.70;;;6.80;99.90;;;;;;5050481;28;20165;-57
2023/01/28 11:15:49;;;;;;;8.37;4.17;;;6.70;99.90;;;;;;5049811;28;20223;-57
2023/01/28 11:18:23;;;;;;;12.93;3.63;;;6.70;99.90;;;;;;5050355;28;20226;-57
2023/01/28 11:21:04;;;;;;;9.13;4.10;;;6.90;99.90;;;;;;5050658;28;20165;-57
2023/01/28 11:23:34;;;;;;;11.33;3.73;;;6.70;99.90;;;;;;5050655;28;20185;-57
2023/01/28 11:26:13;;;;;;;12.70;4.07;;;6.70;99.90;;;;;;5049725;28;20531;-56
2023/01/28 11:28:41;;;;;;;9.63;4.33;;;6.60;99.90;;;;;;5050126;28;20259;-56
2023/01/28 11:31:09;;;;;;;11.07;4.20;;;6.60;99.90;;;;;;5053424;28;20264;-56
2023/01/28 11:33:52;;;;;;;10.20;4.23;;;6.60;99.90;;;;;;5054273;28;20224;-55
2023/01/28 11:36:23;;;;;;;11.30;4.27;;;6.90;99.90;;;;;;5053291;28;20209;-56
2023/01/28 11:38:53;;;;;;;10.37;4.47;;;6.60;99.90;;;;;;5053875;28;20173;-55
2023/01/28 11:41:34;;;;;;;11.37;4.37;;;6.60;99.90;;;;;;5054215;28;20181;-55
2023/01/28 11:44:15;;;;;;;12.63;5.20;;;6.60;99.90;;;;;;5052861;28;20180;-54
2023/01/28 11:46:46;;;;;;;14.20;4.53;;;6.60;99.90;;;;;;5053888;28;20216;-56
2023/01/28 11:49:33;;;;;;;11.03;5.00;;;6.70;99.90;;;;;;5054217;28;20188;-56
2023/01/28 11:52:20;;;;;;;11.40;4.50;;;6.80;99.90;;;;;;5054408;28;20263;-56
2023/01/28 11:54:56;;;;;;;11.27;5.27;;;7.00;99.90;;;;;;5053836;28;20188;-56
2023/01/28 11:57:44;;;;;;;11.87;5.37;;;6.90;99.90;;;;;;5054152;28;20216;-56
2023/01/28 12:00:44;;;;;;;13.23;5.70;;;7.00;99.90;;;;;;5054429;28;20169;-56
2023/01/28 12:03:48;;;;;;;11.70;5.20;;;6.90;99.90;;;;;;5053830;28;20169;-56
2023/01/28 12:06:34;;;;;;;10.10;5.00;;;7.00;99.90;;;;;;4999869;28;20197;-56
2023/01/28 12:09:17;;;;;;;19.77;5.67;;;7.00;99.90;;;;;;5033969;28;20715;-56
2023/01/28 12:12:10;;;;;;;23.70;5.63;;;7.00;99.90;;;;;;5036939;28;20204;-56
2023/01/28 12:15:06;;;;;;;10.80;4.80;;;7.10;99.90;;;;;;5053855;28;20181;-56
2023/01/28 12:18:09;;;;;;;14.87;5.70;;;6.40;99.90;;;;;;5053287;28;20504;-56
2023/01/28 12:21:07;;;;;;;15.03;5.23;;;7.00;99.90;;;;;;5051820;28;20564;-56
2023/01/28 12:24:03;;;;;;;10.20;5.00;;;6.90;99.90;;;;;;5043253;28;20181;-56
2023/01/28 12:26:55;;;;;;;15.53;4.93;;;6.90;99.90;;;;;;5053419;28;20173;-56
2023/01/28 12:29:48;;;;;;;18.97;5.70;;;6.90;99.90;;;;;;5053487;28;20252;-56
2023/01/28 12:32:38;;;;;;;15.93;5.60;;;7.00;99.90;;;;;;5051028;28;20208;-56
2023/01/28 12:35:50;;;;;;;14.47;5.47;;;6.90;99.90;;;;;;5052520;28;20213;-56
2023/01/28 12:38:26;;;;;;;15.63;6.20;;;6.90;99.90;;;;;;5000966;28;20668;-56
2023/01/28 12:41:00;;;;;;;13.63;5.47;;;6.80;99.90;;;;;;5033104;28;20253;-56
2023/01/28 12:43:44;;;;;;;12.33;5.50;;;6.70;99.90;;;;;;5034366;28;20581;-56
2023/01/28 12:46:12;;;;;;;15.97;5.60;;;6.50;99.90;;;;;;5051730;28;20185;-56
2023/01/28 12:48:51;;;;;;;20.70;5.90;;;6.70;99.90;;;;;;5053065;28;20252;-56
2023/01/28 12:51:56;;;;;;;14.27;5.60;;;6.80;99.90;;;;;;5050941;28;20264;-56
2023/01/28 12:54:26;;;;;;;17.10;5.83;;;6.80;99.90;;;;;;5009849;28;20274;-56
2023/01/28 12:56:55;;;;;;;12.27;5.80;;;6.70;99.90;;;;;;5045268;28;20434;-57
2023/01/28 12:59:38;;;;;;;16.60;5.60;;;6.80;99.90;;;;;;5052244;28;20177;-56
2023/01/28 13:02:31;;;;;;;15.80;6.10;;;6.80;99.90;;;;;;5052180;28;20230;-56
2023/01/28 13:05:16;;;;;;;14.80;6.20;;;6.50;99.90;;;;;;5052778;28;20593;-56
2023/01/28 13:07:53;;;;;;;14.30;5.73;;;6.90;99.90;;;;;;5052906;28;20169;-56
2023/01/28 13:10:37;;;;;;;15.50;6.00;;;6.80;99.90;;;;;;5052714;28;20206;-56
2023/01/28 13:13:04;;;;;;;17.07;5.80;;;6.70;99.90;;;;;;5052685;28;20673;-56
2023/01/28 13:15:31;;;;;;;12.63;5.87;;;6.80;99.90;;;;;;5052479;28;20567;-56
2023/01/28 13:17:59;;;;;;;9.63;4.93;;;6.80;99.90;;;;;;5052679;28;20166;-56
2023/01/28 13:20:47;;;;;;;13.00;5.33;;;6.60;99.90;;;;;;5052480;28;20239;-56
2023/01/28 13:23:47;;;;;;;11.63;5.00;;;6.60;99.90;;;;;;5052438;28;20178;-56
2023/01/28 13:26:18;;;;;;;9.27;4.63;;;6.70;99.90;;;;;;5009019;28;20280;-56
2023/01/28 13:28:49;;;;;;;16.80;5.33;;;6.90;99.90;;;;;;5052144;28;20646;-56
2023/01/28 13:31:17;;;;;;;12.70;5.33;;;6.70;99.90;;;;;;5052452;28;20204;-56
2023/01/28 13:33:59;;;;;;;9.57;4.77;;;6.70;99.90;;;;;;5052295;28;20225;-56
2023/01/28 13:36:33;;;;;;;11.77;4.83;;;6.70;99.90;;;;;;5052119;28;20265;-56
2023/01/28 13:39:16;;;;;;;10.67;5.27;;;6.60;99.90;;;;;;5052089;28;20211;-56
2023/01/28 13:41:54;;;;;;;6.97;4.30;;;6.60;99.90;;;;;;5052027;28;20264;-56